sensor_id;sensor_type;location;lat;lon;timestamp;temperature;humidity
76203;DHT22;64985;46.364;17.008;2022-11-13T00:00:06;21.50;80.60
76203;DHT22;64985;46.364;17.008;2022-11-13T19:01:37;21.40;80.00
76203;DHT22;64985;46.364;17.008;2022-11-13T19:11:43;18.90;62.10
76203;DHT22;64985;46.364;17.008;2022-11-13T19:14:46;15.80;66.30
76203;DHT22;64985;46.364;17.008;2022-11-13T19:17:50;13.60;73.10
76203;DHT22;64985;46.364;17.008;2022-11-13T19:20:54;11.90;84.60
76203;DHT22;64985;46.364;17.008;2022-11-13T19:23:58;10.90;92.20
76203;DHT22;64985;46.364;17.008;2022-11-13T19:27:02;10.30;96.40
76203;DHT22;64985;46.364;17.008;2022-11-13T19:30:06;9.90;98.40
76203;DHT22;64985;46.364;17.008;2022-11-13T19:33:10;9.70;99.90
76203;DHT22;64985;46.364;17.008;2022-11-13T19:36:15;9.50;99.90
76203;DHT22;64985;46.364;17.008;2022-11-13T19:39:18;9.40;99.90
76203;DHT22;64985;46.364;17.008;2022-11-13T19:42:21;9.30;99.90
76203;DHT22;64985;46.364;17.008;2022-11-13T19:45:24;9.20;99.90
76203;DHT22;64985;46.364;17.008;2022-11-13T19:48:31;9.20;99.90
76203;DHT22;64985;46.364;17.008;2022-11-13T19:51:36;9.20;99.90
76203;DHT22;64985;46.364;17.008;2022-11-13T19:54:39;9.20;99.90
76203;DHT22;64985;46.364;17.008;2022-11-13T19:57:43;9.10;99.90
76203;DHT22;64985;46.364;17.008;2022-11-13T20:00:48;9.00;99.90
76203;DHT22;64985;46.364;17.008;2022-11-13T20:03:55;9.00;99.90
76203;DHT22;64985;46.364;17.008;2022-11-13T20:06:58;8.90;99.90
76203;DHT22;64985;46.364;17.008;2022-11-13T20:10:02;8.80;99.90
76203;DHT22;64985;46.364;17.008;2022-11-13T20:13:05;8.70;99.90
76203;DHT22;64985;46.364;17.008;2022-11-13T20:16:12;8.60;99.90
76203;DHT22;64985;46.364;17.008;2022-11-13T20:19:16;8.50;99.90
76203;DHT22;64985;46.364;17.008;2022-11-13T20:22:19;8.50;99.90
76203;DHT22;64985;46.364;17.008;2022-11-13T20:25:22;8.40;99.90
76203;DHT22;64985;46.364;17.008;2022-11-13T20:28:27;8.40;99.90
76203;DHT22;64985;46.364;17.008;2022-11-13T20:31:31;8.30;99.90
76203;DHT22;64985;46.364;17.008;2022-11-13T20:34:34;8.30;99.90
76203;DHT22;64985;46.364;17.008;2022-11-13T20:37:37;8.20;99.90
76203;DHT22;64985;46.364;17.008;2022-11-13T20:40:40;8.10;99.90
76203;DHT22;64985;46.364;17.008;2022-11-13T20:43:44;8.00;99.90
76203;DHT22;64985;46.364;17.008;2022-11-13T20:46:46;8.00;99.90
76203;DHT22;64985;46.364;17.008;2022-11-13T20:49:49;7.90;99.90
76203;DHT22;64985;46.364;17.008;2022-11-13T20:52:53;7.90;99.90
76203;DHT22;64985;46.364;17.008;2022-11-13T20:55:56;7.80;99.90
76203;DHT22;64985;46.364;17.008;2022-11-13T20:59:00;7.90;99.90
76203;DHT22;64985;46.364;17.008;2022-11-13T21:02:05;7.80;99.90
76203;DHT22;64985;46.364;17.008;2022-11-13T21:05:08;7.80;99.90
76203;DHT22;64985;46.364;17.008;2022-11-13T21:08:11;7.80;99.90
76203;DHT22;64985;46.364;17.008;2022-11-13T21:11:17;7.80;99.90
76203;DHT22;64985;46.364;17.008;2022-11-13T21:14:20;7.80;99.90
76203;DHT22;64985;46.364;17.008;2022-11-13T21:17:23;7.80;99.90
76203;DHT22;64985;46.364;17.008;2022-11-13T21:20:27;7.70;99.90
76203;DHT22;64985;46.364;17.008;2022-11-13T21:23:30;7.60;99.90
76203;DHT22;64985;46.364;17.008;2022-11-13T21:26:32;7.60;99.90
76203;DHT22;64985;46.364;17.008;2022-11-13T21:29:35;7.50;99.90
76203;DHT22;64985;46.364;17.008;2022-11-13T21:32:38;7.50;99.90
76203;DHT22;64985;46.364;17.008;2022-11-13T21:35:40;7.50;99.90
76203;DHT22;64985;46.364;17.008;2022-11-13T21:38:43;7.50;99.90
76203;DHT22;64985;46.364;17.008;2022-11-13T21:41:46;7.50;99.90
76203;DHT22;64985;46.364;17.008;2022-11-13T21:44:48;7.40;99.90
76203;DHT22;64985;46.364;17.008;2022-11-13T21:47:51;7.30;99.90
76203;DHT22;64985;46.364;17.008;2022-11-13T21:50:57;7.30;99.90
76203;DHT22;64985;46.364;17.008;2022-11-13T21:54:00;7.20;99.90
76203;DHT22;64985;46.364;17.008;2022-11-13T21:57:02;7.20;99.90
76203;DHT22;64985;46.364;17.008;2022-11-13T22:00:05;7.10;99.90
76203;DHT22;64985;46.364;17.008;2022-11-13T22:03:08;7.10;99.90
76203;DHT22;64985;46.364;17.008;2022-11-13T22:09:18;7.00;99.90
76203;DHT22;64985;46.364;17.008;2022-11-13T22:12:21;7.00;99.90
76203;DHT22;64985;46.364;17.008;2022-11-13T22:15:24;6.90;99.90
76203;DHT22;64985;46.364;17.008;2022-11-13T22:18:26;6.90;99.90
76203;DHT22;64985;46.364;17.008;2022-11-13T22:21:30;6.80;99.90
76203;DHT22;64985;46.364;17.008;2022-11-13T22:24:33;6.70;99.90
76203;DHT22;64985;46.364;17.008;2022-11-13T22:27:35;6.70;99.90
76203;DHT22;64985;46.364;17.008;2022-11-13T22:30:38;6.60;99.90
76203;DHT22;64985;46.364;17.008;2022-11-13T22:33:41;6.60;99.90
76203;DHT22;64985;46.364;17.008;2022-11-13T22:36:50;6.60;99.90
76203;DHT22;64985;46.364;17.008;2022-11-13T22:39:53;6.60;99.90
76203;DHT22;64985;46.364;17.008;2022-11-13T22:42:55;6.50;99.90
76203;DHT22;64985;46.364;17.008;2022-11-13T22:46:08;6.50;99.90
76203;DHT22;64985;46.364;17.008;2022-11-13T22:49:11;6.60;99.90
76203;DHT22;64985;46.364;17.008;2022-11-13T22:52:14;6.60;99.90
76203;DHT22;64985;46.364;17.008;2022-11-13T22:55:16;6.70;99.90
76203;DHT22;64985;46.364;17.008;2022-11-13T22:58:19;6.70;99.90
76203;DHT22;64985;46.364;17.008;2022-11-13T23:01:24;6.80;99.90
76203;DHT22;64985;46.364;17.008;2022-11-13T23:04:27;6.80;99.90
76203;DHT22;64985;46.364;17.008;2022-11-13T23:07:29;6.80;99.90
76203;DHT22;64985;46.364;17.008;2022-11-13T23:10:32;6.90;99.90
76203;DHT22;64985;46.364;17.008;2022-11-13T23:13:34;6.90;99.90
76203;DHT22;64985;46.364;17.008;2022-11-13T23:16:37;7.00;99.90
76203;DHT22;64985;46.364;17.008;2022-11-13T23:19:40;7.00;99.90
76203;DHT22;64985;46.364;17.008;2022-11-13T23:22:42;7.00;99.90
76203;DHT22;64985;46.364;17.008;2022-11-13T23:25:45;7.00;99.90
76203;DHT22;64985;46.364;17.008;2022-11-13T23:28:48;7.00;99.90
76203;DHT22;64985;46.364;17.008;2022-11-13T23:31:50;6.90;99.90
76203;DHT22;64985;46.364;17.008;2022-11-13T23:34:53;6.90;99.90
76203;DHT22;64985;46.364;17.008;2022-11-13T23:38:01;6.90;99.90
76203;DHT22;64985;46.364;17.008;2022-11-13T23:41:03;6.90;99.90
76203;DHT22;64985;46.364;17.008;2022-11-13T23:44:06;6.90;99.90
76203;DHT22;64985;46.364;17.008;2022-11-13T23:47:10;6.90;99.90
76203;DHT22;64985;46.364;17.008;2022-11-13T23:50:14;6.90;99.90
76203;DHT22;64985;46.364;17.008;2022-11-13T23:53:16;6.90;99.90
76203;DHT22;64985;46.364;17.008;2022-11-13T23:56:19;6.90;99.90
76203;DHT22;64985;46.364;17.008;2022-11-13T23:59:21;6.90;99.90
